TAF Text Data
IDs:
Format:
Raw Decoded Include METAR

Data at: 2056 UTC 15 Oct 2018

KOAJ 151744Z 1518/1618 19006KT P6SM VCSH BKN060
  FM160900 VRB03KT 4SM BR SCT005 BKN080
  FM161600 01005KT P6SM BKN030 AMD LTD TO CLD VIS AND WIND